CheckWX is a tool to help pilots better visualize weather data.  It is not intended as a substitute for an official pre-flight weather briefing.

01:30:15 UTC

KHTS TAF
Tri-State / Milton J Ferguson Field Airport
Huntington, West Virginia, USA
KHTS 192325Z 2000/2024 20003KT P6SM SKC FM201000 VRB03KT 6SM BR SCT009 FM201300 23004KT P6SM BKN015 FM201400 24004KT P6SM BKN025 FM201500 25004KT P6SM BKN035 FM201800 25004KT P6SM SCT035 SCT250

Jul-20@
00:00 UTC

Jul-20 @ 00:00 UTC

Jul-20@
10:00 UTC

Jul-20 @ 10:00 UTC

KHTS 192325Z 2000/2024 20003KT P6SM SKC
Wind
  • 200° at 3 KTS
Cloud Levels
  • Clear skies

Jul-20@
10:00 UTC

Jul-20 @ 10:00 UTC

Jul-20@
13:00 UTC

Jul-20 @ 13:00 UTC

FM201000 VRB03KT 6SM BR SCT009

From

From Standard forecast or significant change

Wind
  • Variable at 3 KTS
Conditions
Mist
Cloud Levels
  • Scattered at 900' AGL

Jul-20@
13:00 UTC

Jul-20 @ 13:00 UTC

Jul-20@
14:00 UTC

Jul-20 @ 14:00 UTC

FM201300 23004KT P6SM BKN015

From

From Standard forecast or significant change

Wind
  • 230° at 4 KTS
Cloud Levels
  • Broken at 1,500' AGL

Jul-20@
14:00 UTC

Jul-20 @ 14:00 UTC

Jul-20@
15:00 UTC

Jul-20 @ 15:00 UTC

FM201400 24004KT P6SM BKN025

From

From Standard forecast or significant change

Wind
  • 240° at 4 KTS
Cloud Levels
  • Broken at 2,500' AGL

Jul-20@
15:00 UTC

Jul-20 @ 15:00 UTC

Jul-20@
18:00 UTC

Jul-20 @ 18:00 UTC

FM201500 25004KT P6SM BKN035

From

From Standard forecast or significant change

Wind
  • 250° at 4 KTS
Cloud Levels
  • Broken at 3,500' AGL

Jul-20@
18:00 UTC

Jul-20 @ 18:00 UTC

Jul-21@
00:00 UTC

Jul-21 @ 00:00 UTC

FM201800 25004KT P6SM SCT035 SCT250

From

From Standard forecast or significant change

Wind
  • 250° at 4 KTS
Cloud Levels
  • Scattered at 3,500' AGL
  • Scattered at 25,000' AGL